Time;durP1;ratioP1;P1;durP2;ratioP2;P2;SDS_P1;SDS_P2;PMS_P1;PMS_P2;Temp;Humidity;BMP_temperature;BMP_pressure;BME280_temperature;BME280_humidity;BME280_pressure;Samples;Min_cycle;Max_cycle;Signal;HPM_P1;HPM_P2
2022/04/28 00:00:54;;;;;;;18.42;6.75;;;5.30;99.90;;;;;;4995169;28;20462;-72
2022/04/28 00:03:20;;;;;;;16.75;6.38;;;5.20;99.90;;;;;;4995425;28;20419;-72
2022/04/28 00:05:46;;;;;;;17.38;6.25;;;5.20;99.90;;;;;;4995140;28;20045;-72
2022/04/28 00:08:12;;;;;;;13.38;6.93;;;5.20;99.90;;;;;;4995217;28;20045;-72
2022/04/28 00:10:38;;;;;;;14.77;7.00;;;5.20;99.90;;;;;;4994696;28;20041;-72
2022/04/28 00:13:06;;;;;;;14.55;7.03;;;5.20;99.90;;;;;;4994995;28;20049;-72
2022/04/28 00:15:31;;;;;;;11.50;7.03;;;5.20;99.90;;;;;;4995006;28;20076;-72
2022/04/28 00:17:57;;;;;;;13.45;7.38;;;5.10;99.90;;;;;;4994460;28;20073;-72
2022/04/28 00:20:23;;;;;;;18.52;6.40;;;5.10;99.90;;;;;;4994538;28;20077;-72
2022/04/28 00:22:49;;;;;;;14.75;6.90;;;5.10;99.90;;;;;;4995103;28;20049;-72
2022/04/28 00:25:15;;;;;;;13.27;6.18;;;5.10;99.90;;;;;;5012195;28;20046;-72
2022/04/28 00:27:40;;;;;;;14.80;6.70;;;5.10;99.90;;;;;;4994831;28;20132;-71
2022/04/28 00:30:07;;;;;;;11.35;6.57;;;5.10;99.90;;;;;;5012139;28;20034;-72
2022/04/28 00:32:34;;;;;;;14.02;6.13;;;5.10;99.90;;;;;;4978506;28;20030;-72
2022/04/28 00:34:59;;;;;;;9.45;5.18;;;5.00;99.90;;;;;;4994524;28;20502;-72
2022/04/28 00:37:25;;;;;;;11.57;5.43;;;5.00;99.90;;;;;;4994584;28;20073;-72
2022/04/28 00:39:51;;;;;;;11.85;4.93;;;4.90;99.90;;;;;;4994572;28;20084;-72
2022/04/28 00:42:18;;;;;;;10.63;5.35;;;4.90;99.90;;;;;;4994825;28;20449;-73
2022/04/28 00:44:44;;;;;;;12.23;5.18;;;4.80;99.90;;;;;;4994460;28;20546;-72
2022/04/28 00:47:11;;;;;;;11.43;5.38;;;4.70;99.90;;;;;;4994439;28;20410;-73
2022/04/28 00:52:21;;;;;;;8.48;4.65;;;4.60;99.90;;;;;;4994361;28;20496;-72
2022/04/28 00:54:49;;;;;;;9.68;5.60;;;4.50;99.90;;;;;;4994355;28;20044;-72
2022/04/28 00:57:15;;;;;;;11.48;6.00;;;4.50;99.90;;;;;;4994432;28;20554;-72
2022/04/28 00:59:43;;;;;;;12.88;6.05;;;4.50;99.90;;;;;;4994368;28;20041;-72
2022/04/28 01:02:12;;;;;;;16.67;7.25;;;4.40;99.90;;;;;;4994571;28;20500;-72
2022/04/28 01:04:39;;;;;;;11.82;7.05;;;4.40;99.90;;;;;;4994036;28;20048;-72
2022/04/28 01:07:06;;;;;;;11.15;7.18;;;4.40;99.90;;;;;;4994722;28;20484;-72
2022/04/28 01:09:39;;;;;;;12.30;7.38;;;4.30;99.90;;;;;;4993992;28;20524;-72
2022/04/28 01:12:07;;;;;;;14.32;7.57;;;4.40;99.90;;;;;;4994623;28;20415;-73
2022/04/28 01:14:33;;;;;;;14.07;8.18;;;4.30;99.90;;;;;;4994228;28;20492;-73
2022/04/28 01:17:00;;;;;;;17.95;7.72;;;4.30;99.90;;;;;;4994261;28;20623;-73
2022/04/28 01:19:25;;;;;;;14.38;7.07;;;4.30;99.90;;;;;;4994051;28;20516;-72
2022/04/28 01:21:52;;;;;;;12.93;7.85;;;4.30;99.90;;;;;;4994245;28;20053;-72
2022/04/28 01:24:18;;;;;;;11.20;7.68;;;4.30;99.90;;;;;;5009857;28;20479;-72
2022/04/28 01:26:45;;;;;;;12.60;7.40;;;4.30;99.90;;;;;;4976991;28;20559;-72
2022/04/28 01:29:10;;;;;;;16.90;9.05;;;4.30;99.90;;;;;;4972548;28;20580;-72
2022/04/28 01:31:36;;;;;;;15.20;7.90;;;4.20;99.90;;;;;;4975545;28;20038;-72
2022/04/28 01:34:02;;;;;;;14.80;8.60;;;4.20;99.90;;;;;;4976399;28;20042;-72
2022/04/28 01:36:28;;;;;;;12.77;8.30;;;4.20;99.90;;;;;;4992690;28;20037;-72
2022/04/28 01:38:54;;;;;;;16.20;8.15;;;4.20;99.90;;;;;;5015937;28;20045;-73
2022/04/28 01:41:19;;;;;;;16.13;9.00;;;4.20;99.90;;;;;;5015583;28;20038;-72
2022/04/28 01:43:45;;;;;;;17.90;9.23;;;4.10;99.90;;;;;;5016330;28;20469;-73
2022/04/28 01:46:12;;;;;;;15.02;9.27;;;4.20;99.90;;;;;;5033611;28;20057;-72
2022/04/28 01:48:38;;;;;;;14.50;9.00;;;4.20;99.90;;;;;;5000877;28;20132;-73
2022/04/28 01:56:32;;;;;;;17.55;8.80;;;4.00;99.90;;;;;;5017076;28;20594;-72
2022/04/28 01:58:57;;;;;;;14.25;8.15;;;4.10;99.90;;;;;;5033774;28;20140;-72
2022/04/28 02:01:23;;;;;;;13.88;8.38;;;4.10;99.90;;;;;;5033130;28;20049;-72
2022/04/28 02:03:49;;;;;;;17.17;9.07;;;4.10;99.90;;;;;;5017194;28;20132;-71
2022/04/28 02:06:14;;;;;;;14.43;9.30;;;4.00;99.90;;;;;;5016917;28;20051;-71
2022/04/28 02:08:40;;;;;;;13.32;8.80;;;4.00;99.90;;;;;;5016860;28;20046;-71
2022/04/28 02:11:07;;;;;;;12.77;9.13;;;4.00;99.90;;;;;;5033054;28;20447;-72
2022/04/28 02:13:34;;;;;;;14.15;9.23;;;4.00;99.90;;;;;;5033404;28;20044;-72
2022/04/28 02:15:59;;;;;;;16.00;9.88;;;4.10;99.90;;;;;;5016941;28;20050;-71
2022/04/28 02:18:25;;;;;;;16.55;9.75;;;4.10;99.90;;;;;;5033508;28;20052;-71
2022/04/28 02:20:50;;;;;;;15.35;8.68;;;4.10;99.90;;;;;;5033196;28;20095;-72
2022/04/28 02:23:16;;;;;;;13.30;8.73;;;4.20;99.90;;;;;;5033402;28;20128;-72
2022/04/28 02:25:42;;;;;;;11.32;8.05;;;4.20;99.90;;;;;;5033178;28;20060;-71
2022/04/28 02:28:07;;;;;;;15.07;8.57;;;4.30;99.90;;;;;;5033167;28;20087;-71
2022/04/28 02:30:33;;;;;;;13.20;8.60;;;4.30;99.90;;;;;;5032883;28;20048;-71
2022/04/28 02:33:11;;;;;;;11.95;7.80;;;4.40;99.90;;;;;;5033221;28;20037;-71
2022/04/28 02:35:37;;;;;;;13.05;7.82;;;4.50;99.90;;;;;;5016536;28;20434;-71
2022/04/28 02:38:03;;;;;;;14.30;8.63;;;4.60;99.90;;;;;;5033175;28;20075;-71
2022/04/28 02:40:29;;;;;;;15.48;8.73;;;4.60;99.90;;;;;;5016113;28;20077;-71
2022/04/28 02:42:55;;;;;;;15.13;9.15;;;4.60;99.90;;;;;;5016386;28;20056;-71
2022/04/28 02:45:21;;;;;;;11.88;8.05;;;4.70;99.90;;;;;;5016050;28;20041;-72
2022/04/28 02:47:46;;;;;;;13.07;8.48;;;4.70;99.90;;;;;;4999818;28;20074;-72
2022/04/28 02:50:12;;;;;;;16.38;8.35;;;4.80;99.90;;;;;;4993584;28;20076;-72
2022/04/28 02:52:39;;;;;;;16.33;8.55;;;4.80;99.90;;;;;;4976663;28;20495;-72
2022/04/28 02:55:06;;;;;;;14.88;7.85;;;4.80;99.90;;;;;;4991893;28;20049;-72
2022/04/28 02:57:32;;;;;;;16.13;8.32;;;4.90;99.90;;;;;;4988619;28;20046;-72
2022/04/28 02:59:58;;;;;;;12.68;7.68;;;4.90;99.90;;;;;;4987658;28;20046;-72
2022/04/28 03:02:24;;;;;;;14.65;7.13;;;5.00;99.90;;;;;;4987276;28;20037;-72
2022/04/28 03:04:50;;;;;;;19.33;7.93;;;5.10;99.90;;;;;;4986207;28;20045;-72
2022/04/28 03:12:45;;;;;;;12.07;6.70;;;5.30;99.90;;;;;;4989449;28;20112;-72
2022/04/28 03:15:11;;;;;;;11.43;7.07;;;5.30;99.90;;;;;;4988821;28;20043;-72
2022/04/28 03:17:37;;;;;;;18.60;8.07;;;5.40;99.90;;;;;;4988266;28;20037;-71
2022/04/28 03:20:04;;;;;;;16.65;9.13;;;5.50;99.90;;;;;;4985305;28;20042;-73
2022/04/28 03:22:30;;;;;;;18.20;7.55;;;5.50;99.90;;;;;;4987709;28;20065;-72
2022/04/28 03:24:56;;;;;;;11.45;6.32;;;5.60;99.90;;;;;;4995975;28;20068;-72
2022/04/28 03:27:21;;;;;;;18.92;6.72;;;5.70;99.90;;;;;;4996075;28;20045;-72
2022/04/28 03:29:47;;;;;;;18.73;7.35;;;5.70;99.90;;;;;;4995670;28;20044;-72
2022/04/28 03:32:13;;;;;;;12.23;6.25;;;5.80;99.90;;;;;;4996094;28;20084;-72
2022/04/28 03:34:38;;;;;;;11.32;6.25;;;5.80;99.90;;;;;;4995557;28;20034;-72
2022/04/28 03:37:04;;;;;;;13.02;6.82;;;5.90;99.90;;;;;;4995579;28;20084;-72
2022/04/28 03:39:30;;;;;;;11.00;5.50;;;5.90;99.90;;;;;;4995195;28;20047;-72
2022/04/28 03:41:55;;;;;;;11.55;5.97;;;5.90;99.90;;;;;;4995535;28;20050;-72
2022/04/28 03:44:21;;;;;;;15.77;6.88;;;5.90;99.90;;;;;;4995369;28;20038;-72
2022/04/28 03:46:47;;;;;;;12.85;6.75;;;5.90;99.90;;;;;;4995516;28;20041;-72
2022/04/28 03:49:13;;;;;;;10.68;6.43;;;5.90;99.90;;;;;;4995321;28;20408;-72
2022/04/28 03:51:39;;;;;;;11.80;6.40;;;5.90;99.90;;;;;;4995098;28;20107;-72
2022/04/28 03:54:05;;;;;;;19.63;6.40;;;5.90;99.90;;;;;;4994726;28;20042;-72
2022/04/28 03:56:33;;;;;;;14.25;6.35;;;5.90;99.90;;;;;;4995032;28;20042;-72
2022/04/28 03:59:00;;;;;;;11.95;6.47;;;5.90;99.90;;;;;;4995479;28;20521;-72
2022/04/28 04:01:26;;;;;;;13.68;5.97;;;6.00;99.90;;;;;;4995044;28;20049;-73
2022/04/28 04:03:52;;;;;;;13.32;6.07;;;6.00;99.90;;;;;;4995112;28;20121;-73
2022/04/28 04:06:18;;;;;;;16.05;5.65;;;6.10;99.90;;;;;;4995269;28;20053;-72
2022/04/28 04:08:44;;;;;;;13.35;5.63;;;6.10;99.90;;;;;;4995003;28;20053;-72
2022/04/28 04:11:10;;;;;;;11.32;6.07;;;6.10;99.90;;;;;;4995018;28;20411;-72
2022/04/28 04:13:35;;;;;;;9.38;5.38;;;6.20;99.90;;;;;;4994936;28;20041;-72
2022/04/28 04:16:01;;;;;;;10.90;5.68;;;6.20;99.90;;;;;;4995244;28;20041;-72
2022/04/28 04:18:26;;;;;;;13.57;5.63;;;6.20;99.90;;;;;;4994883;28;20053;-72
2022/04/28 04:20:52;;;;;;;15.80;5.82;;;6.20;99.90;;;;;;4994579;28;20734;-72
2022/04/28 04:23:18;;;;;;;13.75;6.00;;;6.20;99.90;;;;;;4978750;28;20469;-72
2022/04/28 04:25:44;;;;;;;16.17;6.72;;;6.30;99.90;;;;;;4994605;28;20412;-73
2022/04/28 04:28:10;;;;;;;16.23;7.53;;;6.30;99.90;;;;;;4994892;28;20045;-72
2022/04/28 04:33:20;;;;;;;15.07;7.68;;;6.30;99.90;;;;;;4994683;28;20083;-73
2022/04/28 04:35:46;;;;;;;17.38;7.75;;;6.30;99.90;;;;;;4994514;28;20488;-72
2022/04/28 04:38:11;;;;;;;12.05;7.07;;;6.30;99.90;;;;;;4994987;28;20050;-72
2022/04/28 04:40:37;;;;;;;15.75;7.40;;;6.30;99.90;;;;;;4978284;28;20466;-72
2022/04/28 04:43:04;;;;;;;12.23;6.50;;;6.30;99.90;;;;;;4994677;28;20638;-73
2022/04/28 04:45:30;;;;;;;13.40;6.40;;;6.40;99.90;;;;;;4994462;28;20042;-72
2022/04/28 04:47:56;;;;;;;11.60;6.40;;;6.40;99.90;;;;;;4994608;28;20057;-73
2022/04/28 04:50:22;;;;;;;12.77;6.72;;;6.50;99.90;;;;;;4994228;28;20042;-73
2022/04/28 04:52:47;;;;;;;13.45;6.85;;;6.50;99.90;;;;;;4994553;28;20115;-72
2022/04/28 04:55:13;;;;;;;14.88;6.85;;;6.60;99.90;;;;;;4994511;28;20041;-72
2022/04/28 04:57:39;;;;;;;15.95;7.05;;;6.60;99.90;;;;;;4994695;28;20091;-72
2022/04/28 05:00:06;;;;;;;12.55;6.53;;;6.70;99.90;;;;;;4994342;28;20069;-73
2022/04/28 05:02:31;;;;;;;10.65;6.60;;;6.70;99.90;;;;;;4994291;28;20411;-73
2022/04/28 05:04:57;;;;;;;14.68;6.90;;;6.80;99.90;;;;;;4996450;28;20125;-73
2022/04/28 05:07:29;;;;;;;12.40;6.55;;;6.80;99.90;;;;;;4998407;28;20074;-73
2022/04/28 05:09:54;;;;;;;12.98;7.28;;;6.80;99.90;;;;;;4998094;28;20622;-73
2022/04/28 05:12:20;;;;;;;14.93;7.22;;;6.90;99.90;;;;;;4998427;28;20045;-73
2022/04/28 05:14:45;;;;;;;15.60;7.57;;;6.90;99.90;;;;;;4998440;28;20038;-72
2022/04/28 05:17:11;;;;;;;15.43;7.20;;;6.90;99.90;;;;;;4998478;28;20045;-72
2022/04/28 05:19:37;;;;;;;16.63;8.38;;;6.90;99.90;;;;;;4997778;28;20053;-72
2022/04/28 05:22:03;;;;;;;14.50;7.65;;;7.00;99.90;;;;;;4998246;28;20045;-72
2022/04/28 05:24:28;;;;;;;13.13;7.47;;;7.00;99.90;;;;;;4998003;28;20129;-73
2022/04/28 05:26:54;;;;;;;13.38;8.15;;;7.10;99.90;;;;;;4994403;28;20045;-73
2022/04/28 05:29:20;;;;;;;13.18;6.97;;;7.10;99.90;;;;;;4996051;28;20046;-73
2022/04/28 05:31:46;;;;;;;13.15;7.32;;;7.10;99.90;;;;;;4995394;28;20038;-73
2022/04/28 05:34:11;;;;;;;14.05;7.57;;;7.20;99.90;;;;;;5011931;28;20488;-73
2022/04/28 05:36:38;;;;;;;13.43;7.28;;;7.20;99.90;;;;;;5011925;28;20045;-73
2022/04/28 05:39:04;;;;;;;10.60;7.00;;;7.30;99.90;;;;;;4995570;28;20045;-73
2022/04/28 05:41:30;;;;;;;11.85;6.65;;;7.30;99.90;;;;;;5011610;28;20042;-73
2022/04/28 05:46:40;;;;;;;12.63;6.43;;;7.50;99.90;;;;;;4995872;28;20045;-73
2022/04/28 05:49:06;;;;;;;20.33;7.35;;;7.50;99.90;;;;;;5013558;28;20038;-73
2022/04/28 05:51:32;;;;;;;12.07;6.63;;;7.60;99.90;;;;;;5014443;28;20033;-73
2022/04/28 05:53:58;;;;;;;14.50;6.57;;;7.70;99.90;;;;;;4997348;28;20500;-73
2022/04/28 05:56:24;;;;;;;14.55;7.45;;;7.80;99.90;;;;;;5013306;28;20037;-73
2022/04/28 05:58:49;;;;;;;17.30;7.82;;;7.80;99.90;;;;;;4997293;28;20069;-73
2022/04/28 06:01:15;;;;;;;17.95;7.75;;;7.90;99.90;;;;;;4997033;28;20073;-73
2022/04/28 06:03:41;;;;;;;13.25;7.47;;;8.00;99.90;;;;;;5013781;28;20057;-73
2022/04/28 06:06:07;;;;;;;14.88;7.65;;;8.00;99.90;;;;;;5013740;28;20048;-72
2022/04/28 06:08:33;;;;;;;11.45;6.72;;;8.10;99.90;;;;;;4997221;28;20041;-72
2022/04/28 06:11:00;;;;;;;16.67;7.28;;;8.10;99.90;;;;;;4996804;28;20515;-73
2022/04/28 06:13:26;;;;;;;19.48;6.97;;;8.20;99.90;;;;;;4997227;28;20033;-73
2022/04/28 06:15:52;;;;;;;14.82;7.07;;;8.20;99.90;;;;;;5012443;28;20516;-73
2022/04/28 06:18:18;;;;;;;13.18;6.82;;;8.30;99.90;;;;;;5013676;28;20058;-73
2022/04/28 06:20:44;;;;;;;14.07;5.82;;;8.40;99.90;;;;;;5014445;28;20041;-73
2022/04/28 06:23:11;;;;;;;16.00;5.82;;;8.40;99.90;;;;;;4997052;28;20060;-72
2022/04/28 06:25:37;;;;;;;16.13;5.78;;;8.50;99.90;;;;;;4996977;28;20419;-72
2022/04/28 06:28:03;;;;;;;15.38;5.22;;;8.50;99.90;;;;;;4996911;28;20050;-73
2022/04/28 06:30:29;;;;;;;12.18;5.65;;;8.60;99.90;;;;;;4996560;28;20048;-73
2022/04/28 06:32:54;;;;;;;21.00;5.80;;;8.60;99.90;;;;;;4996623;28;20029;-73
2022/04/28 06:35:20;;;;;;;15.88;5.60;;;8.60;99.90;;;;;;5013355;28;20045;-73
2022/04/28 06:37:46;;;;;;;16.65;5.20;;;8.70;99.90;;;;;;5012980;28;20042;-72
2022/04/28 06:40:12;;;;;;;14.13;5.10;;;8.80;99.90;;;;;;5012895;28;20125;-73
2022/04/28 06:42:43;;;;;;;15.45;5.47;;;8.80;99.90;;;;;;4997023;28;20046;-73
2022/04/28 06:45:11;;;;;;;14.77;5.57;;;8.80;99.90;;;;;;4996893;28;20392;-73
2022/04/28 06:47:37;;;;;;;12.43;5.80;;;8.80;99.90;;;;;;4996890;28;20053;-72
2022/04/28 06:50:03;;;;;;;15.93;5.72;;;8.90;99.90;;;;;;4996279;28;20145;-72
2022/04/28 06:52:28;;;;;;;13.85;5.00;;;8.90;99.90;;;;;;4996792;28;20073;-72
2022/04/28 06:54:54;;;;;;;16.13;5.15;;;8.90;99.90;;;;;;4996319;28;20069;-72
2022/04/28 06:57:20;;;;;;;10.35;4.90;;;9.00;99.90;;;;;;5012756;28;20037;-72
2022/04/28 06:59:46;;;;;;;12.82;5.05;;;9.00;99.90;;;;;;4979913;28;20037;-72
2022/04/28 07:02:12;;;;;;;12.95;5.88;;;9.10;99.90;;;;;;5012499;28;20196;-72
2022/04/28 07:04:38;;;;;;;12.80;5.78;;;9.20;99.90;;;;;;4993461;28;20046;-72
2022/04/28 07:07:04;;;;;;;15.57;5.55;;;9.30;99.90;;;;;;4980074;28;20042;-73
2022/04/28 07:09:29;;;;;;;14.85;5.68;;;9.30;99.90;;;;;;5011878;28;20065;-73
2022/04/28 07:11:55;;;;;;;14.55;5.70;;;9.40;99.90;;;;;;5013610;28;20046;-73
2022/04/28 07:14:21;;;;;;;11.82;5.10;;;9.50;99.90;;;;;;4996259;28;20033;-73
2022/04/28 07:16:46;;;;;;;13.27;5.10;;;9.60;99.90;;;;;;4996085;28;20052;-73
2022/04/28 07:19:12;;;;;;;11.95;4.90;;;9.70;99.90;;;;;;4996021;28;20408;-73
2022/04/28 07:21:38;;;;;;;15.50;5.45;;;9.70;99.90;;;;;;4995764;28;20072;-73
2022/04/28 07:24:04;;;;;;;12.38;4.72;;;9.80;99.90;;;;;;4995536;28;20141;-73
2022/04/28 07:26:30;;;;;;;11.30;5.05;;;9.90;99.90;;;;;;4994634;28;20046;-73
2022/04/28 07:28:55;;;;;;;13.60;4.80;;;10.00;99.90;;;;;;4993475;28;20049;-73
2022/04/28 07:31:21;;;;;;;14.70;4.85;;;10.10;99.90;;;;;;4994347;28;20038;-73
2022/04/28 07:33:47;;;;;;;13.00;5.30;;;10.20;99.90;;;;;;4994477;28;20117;-74
2022/04/28 07:36:12;;;;;;;13.73;5.50;;;10.20;99.90;;;;;;4994252;28;20514;-73
2022/04/28 07:38:39;;;;;;;18.67;5.10;;;10.20;99.90;;;;;;4994028;28;20044;-73
2022/04/28 07:41:04;;;;;;;16.70;4.90;;;10.30;99.90;;;;;;4993979;28;20053;-74
2022/04/28 07:43:30;;;;;;;19.20;5.20;;;10.40;99.90;;;;;;4994241;28;20148;-73
2022/04/28 07:45:56;;;;;;;14.00;4.85;;;10.50;99.90;;;;;;4994200;28;20100;-73
2022/04/28 07:48:21;;;;;;;15.45;4.80;;;10.60;99.90;;;;;;4994205;28;20042;-73
2022/04/28 07:50:47;;;;;;;12.88;4.47;;;10.70;99.90;;;;;;4993900;28;20034;-73
2022/04/28 07:53:13;;;;;;;16.52;4.70;;;10.80;99.90;;;;;;4993930;28;20075;-73
2022/04/28 07:55:39;;;;;;;13.82;5.03;;;10.90;99.90;;;;;;4991459;28;20088;-73
2022/04/28 07:58:05;;;;;;;14.02;4.20;;;11.20;99.90;;;;;;4993935;28;20049;-73
2022/04/28 08:00:31;;;;;;;8.95;3.97;;;11.50;99.90;;;;;;4993880;28;20069;-73
2022/04/28 08:02:59;;;;;;;11.90;4.57;;;11.70;99.90;;;;;;4993858;28;20069;-73
2022/04/28 08:05:25;;;;;;;8.15;3.95;;;12.00;99.90;;;;;;4993554;28;20121;-73
2022/04/28 08:07:51;;;;;;;14.77;4.15;;;12.30;99.90;;;;;;4993698;28;20054;-73
2022/04/28 08:10:17;;;;;;;13.23;4.03;;;12.50;99.90;;;;;;4993442;28;20068;-74
2022/04/28 08:12:43;;;;;;;13.02;3.53;;;12.80;99.90;;;;;;4993766;28;20038;-73
2022/04/28 08:15:11;;;;;;;8.68;3.10;;;13.00;99.90;;;;;;4993657;28;20042;-73
2022/04/28 08:17:37;;;;;;;10.77;2.80;;;13.10;99.90;;;;;;4993881;28;20385;-73
2022/04/28 08:20:03;;;;;;;8.55;2.90;;;13.00;99.90;;;;;;4993424;28;20045;-73
2022/04/28 08:22:29;;;;;;;10.68;3.10;;;13.00;99.90;;;;;;4993489;28;20037;-73
2022/04/28 08:24:54;;;;;;;9.27;3.20;;;12.90;99.90;;;;;;4977385;28;20042;-74
2022/04/28 08:27:24;;;;;;;9.60;3.50;;;12.80;99.90;;;;;;4994456;28;20052;-73
2022/04/28 08:29:50;;;;;;;9.10;3.00;;;12.80;99.90;;;;;;4994457;28;20073;-73
2022/04/28 08:32:16;;;;;;;11.25;3.42;;;12.70;99.90;;;;;;4994872;28;20046;-74
2022/04/28 08:34:42;;;;;;;10.52;3.55;;;12.70;99.90;;;;;;4994957;28;20433;-73
2022/04/28 08:37:08;;;;;;;12.20;2.90;;;12.60;99.90;;;;;;4994405;28;20040;-73
2022/04/28 08:39:34;;;;;;;12.88;3.33;;;12.50;99.90;;;;;;5010425;28;20419;-73
2022/04/28 08:42:00;;;;;;;7.20;2.55;;;12.40;99.90;;;;;;4994655;28;20687;-73
2022/04/28 08:44:27;;;;;;;9.50;2.67;;;12.40;99.90;;;;;;5011092;28;20049;-73
2022/04/28 08:46:54;;;;;;;10.73;3.28;;;12.40;99.90;;;;;;4994572;28;20046;-73
2022/04/28 08:49:25;;;;;;;19.75;2.83;;;12.20;99.90;;;;;;4974943;28;20050;-73
2022/04/28 08:51:52;;;;;;;13.15;2.53;;;12.20;99.90;;;;;;4974972;28;20080;-73
2022/04/28 08:54:18;;;;;;;8.68;2.88;;;12.20;99.90;;;;;;4975012;28;20069;-73
2022/04/28 08:56:44;;;;;;;10.63;2.65;;;12.30;99.90;;;;;;4991377;28;20493;-73
2022/04/28 08:59:10;;;;;;;10.13;2.75;;;12.30;99.90;;;;;;4975240;28;20042;-73
2022/04/28 09:01:36;;;;;;;11.88;2.72;;;12.40;99.90;;;;;;4974316;28;20116;-73
2022/04/28 09:04:04;;;;;;;9.15;2.60;;;12.50;99.90;;;;;;4973812;28;20419;-73
2022/04/28 09:06:34;;;;;;;10.27;2.88;;;12.40;99.90;;;;;;4987602;28;20038;-74
2022/04/28 09:09:05;;;;;;;8.02;2.85;;;12.60;99.90;;;;;;4990661;28;20444;-74
2022/04/28 09:11:35;;;;;;;8.27;2.75;;;12.70;99.90;;;;;;4972024;28;20409;-73
2022/04/28 09:14:11;;;;;;;9.43;2.50;;;12.70;99.90;;;;;;4975067;28;20397;-74
2022/04/28 09:16:56;;;;;;;13.43;2.92;;;12.90;99.90;;;;;;4975132;28;20468;-74
2022/04/28 09:19:38;;;;;;;8.80;2.33;;;13.00;99.90;;;;;;4974738;28;20096;-73
2022/04/28 09:22:08;;;;;;;;;;;13.20;99.90;;;;;;4974782;28;20133;-73
2022/04/28 09:24:35;;;;;;;11.10;3.20;;;13.30;99.90;;;;;;4972311;28;20002;-73
2022/04/28 09:27:02;;;;;;;12.80;2.55;;;13.40;99.90;;;;;;4971937;28;20042;-73
2022/04/28 09:29:30;;;;;;;10.10;2.53;;;13.50;99.90;;;;;;4972449;28;20448;-74
2022/04/28 09:31:56;;;;;;;9.38;2.88;;;13.60;99.90;;;;;;4970280;28;20046;-74
2022/04/28 09:34:23;;;;;;;10.10;2.45;;;13.70;99.90;;;;;;4972387;28;20039;-74
2022/04/28 09:36:50;;;;;;;9.95;2.60;;;13.70;99.60;;;;;;4972695;28;20043;-74
2022/04/28 09:44:55;;;;;;;7.28;2.53;;;13.70;99.50;;;;;;4972341;28;20038;-74
2022/04/28 09:47:22;;;;;;;8.57;2.70;;;13.80;98.10;;;;;;4974654;28;20038;-74
2022/04/28 09:49:52;;;;;;;6.88;2.17;;;13.80;98.60;;;;;;4973839;28;20511;-74
2022/04/28 09:52:41;;;;;;;8.75;2.40;;;13.80;99.20;;;;;;4976829;28;20122;-73
2022/04/28 09:55:07;;;;;;;11.32;2.83;;;14.00;99.90;;;;;;4975762;28;20484;-70
2022/04/28 09:57:32;;;;;;;7.47;2.05;;;14.20;96.60;;;;;;4993730;28;20038;-71
2022/04/28 09:59:59;;;;;;;8.57;2.65;;;14.30;96.40;;;;;;4994155;28;20050;-71
2022/04/28 10:02:26;;;;;;;9.50;2.53;;;14.30;97.90;;;;;;4995115;28;20034;-71
2022/04/28 10:04:54;;;;;;;9.52;2.45;;;14.40;97.90;;;;;;4977757;28;20039;-71
2022/04/28 10:07:21;;;;;;;10.77;2.25;;;14.40;97.60;;;;;;5029021;23;20070;-72
2022/04/28 10:09:51;;;;;;;12.27;2.47;;;14.30;96.30;;;;;;5013345;28;20560;-72
2022/04/28 10:12:22;;;;;;;11.10;2.50;;;14.20;95.10;;;;;;5005921;28;20042;-72
2022/04/28 10:14:49;;;;;;;8.55;2.30;;;14.30;95.40;;;;;;5013832;28;20459;-72
2022/04/28 10:17:33;;;;;;;7.70;2.53;;;14.40;97.00;;;;;;5014840;28;20393;-72
2022/04/28 10:20:08;;;;;;;9.00;2.40;;;14.60;97.30;;;;;;5013186;28;20467;-72
2022/04/28 10:22:36;;;;;;;13.25;2.70;;;14.70;95.00;;;;;;5013761;28;20520;-72
2022/04/28 10:33:24;;;;;;;9.70;2.30;;;15.40;92.10;;;;;;5013212;28;20495;-72
2022/04/28 10:35:50;;;;;;;8.07;2.30;;;15.60;90.50;;;;;;5013370;28;20088;-72
2022/04/28 10:38:26;;;;;;;7.05;2.35;;;15.60;90.50;;;;;;5013495;28;20046;-72
2022/04/28 10:41:03;;;;;;;8.25;2.38;;;15.70;90.80;;;;;;5012861;28;20069;-72
2022/04/28 10:43:32;;;;;;;7.75;2.33;;;15.70;91.00;;;;;;4997010;28;20057;-72
2022/04/28 10:46:28;;;;;;;9.93;2.78;;;15.80;85.60;;;;;;5014259;28;20046;-72
2022/04/28 10:49:05;;;;;;;7.53;2.67;;;15.80;82.50;;;;;;5006012;28;20112;-72
2022/04/28 10:51:32;;;;;;;10.77;2.95;;;15.90;88.30;;;;;;5013967;28;20034;-72
2022/04/28 10:54:14;;;;;;;8.43;2.30;;;15.90;85.40;;;;;;5013134;28;20059;-72
2022/04/28 10:56:40;;;;;;;14.07;2.87;;;15.80;82.90;;;;;;5012975;28;20524;-72
2022/04/28 10:59:37;;;;;;;9.90;2.55;;;15.70;80.40;;;;;;5012933;28;20364;-72
2022/04/28 11:02:13;;;;;;;8.57;2.38;;;15.70;84.20;;;;;;5012867;28;20049;-72
2022/04/28 11:04:42;;;;;;;9.82;2.90;;;15.80;82.60;;;;;;5012977;28;20054;-72
2022/04/28 11:07:15;;;;;;;9.95;2.90;;;16.00;80.60;;;;;;5012436;28;20053;-72
2022/04/28 11:09:44;;;;;;;10.07;2.58;;;16.20;78.90;;;;;;5012284;28;20057;-72
2022/04/28 11:12:20;;;;;;;10.65;2.53;;;16.40;74.90;;;;;;5013896;28;20046;-72
2022/04/28 11:15:06;;;;;;;8.15;2.20;;;16.60;77.50;;;;;;5004399;28;20160;-72
2022/04/28 11:17:33;;;;;;;6.47;2.28;;;16.70;71.30;;;;;;4996650;28;20069;-72
2022/04/28 11:20:02;;;;;;;7.10;2.90;;;16.60;73.70;;;;;;5012307;28;20052;-72
2022/04/28 11:22:28;;;;;;;8.77;2.63;;;16.40;73.50;;;;;;5012615;28;20064;-72
2022/04/28 11:24:56;;;;;;;11.70;2.70;;;16.20;75.70;;;;;;5012306;28;20043;-72
2022/04/28 11:27:25;;;;;;;6.18;2.47;;;16.40;79.60;;;;;;5013391;28;20048;-72
2022/04/28 11:29:54;;;;;;;9.57;2.47;;;16.50;79.60;;;;;;5011785;28;20046;-72
2022/04/28 11:32:19;;;;;;;7.82;2.60;;;16.60;75.10;;;;;;5013422;28;20038;-72
2022/04/28 11:34:47;;;;;;;11.20;3.00;;;16.70;73.20;;;;;;5013363;28;20045;-72
2022/04/28 11:37:17;;;;;;;7.68;2.78;;;16.80;72.70;;;;;;5012299;28;20045;-72
2022/04/28 11:39:44;;;;;;;11.48;3.20;;;16.80;69.60;;;;;;5011990;28;20042;-72
2022/04/28 11:42:11;;;;;;;12.23;3.53;;;16.90;71.00;;;;;;5012252;28;20096;-72
2022/04/28 11:44:53;;;;;;;7.47;2.70;;;16.90;72.90;;;;;;5012076;28;20048;-72
2022/04/28 11:47:19;;;;;;;10.63;3.30;;;16.80;70.90;;;;;;5012322;28;20105;-72
2022/04/28 11:49:45;;;;;;;10.10;3.17;;;16.70;71.90;;;;;;5011557;28;20042;-72
2022/04/28 11:52:23;;;;;;;8.15;3.28;;;16.60;73.20;;;;;;5012035;28;20096;-72
2022/04/28 11:55:01;;;;;;;10.90;3.20;;;16.70;73.20;;;;;;5012035;28;20042;-72
2022/04/28 11:57:27;;;;;;;15.13;3.20;;;17.00;73.80;;;;;;5011898;28;20045;-72
2022/04/28 11:59:54;;;;;;;11.45;3.45;;;16.90;68.20;;;;;;5011675;28;20052;-71
2022/04/28 12:02:28;;;;;;;7.90;3.13;;;16.90;71.10;;;;;;5011928;28;20056;-71
2022/04/28 12:04:55;;;;;;;11.10;3.40;;;16.90;70.20;;;;;;5011648;28;20053;-71
2022/04/28 12:07:22;;;;;;;10.75;3.20;;;17.10;69.10;;;;;;5011561;28;20081;-71
2022/04/28 12:15:25;;;;;;;8.77;3.20;;;17.40;67.70;;;;;;5010725;28;20041;-71
2022/04/28 12:21:13;;;;;;;8.10;3.13;;;17.50;71.70;;;;;;5011047;28;20052;-71
2022/04/28 12:23:40;;;;;;;11.60;3.72;;;17.50;68.10;;;;;;5011545;28;20050;-71
2022/04/28 12:26:09;;;;;;;11.75;3.85;;;17.40;66.20;;;;;;5011073;28;20046;-71
2022/04/28 12:28:39;;;;;;;10.07;3.38;;;17.20;67.40;;;;;;5011179;28;20089;-71
2022/04/28 12:31:07;;;;;;;15.82;3.58;;;17.50;71.30;;;;;;5012222;28;20042;-71
2022/04/28 12:33:35;;;;;;;11.15;3.47;;;17.80;70.60;;;;;;5011298;28;20049;-71
2022/04/28 12:36:03;;;;;;;8.05;3.45;;;18.00;63.80;;;;;;5012372;28;20041;-71
2022/04/28 12:38:31;;;;;;;11.90;3.30;;;17.80;64.20;;;;;;5011032;28;20077;-71
2022/04/28 12:41:11;;;;;;;9.50;3.35;;;18.00;65.20;;;;;;5012252;28;20096;-71
2022/04/28 12:43:39;;;;;;;10.23;3.42;;;18.30;66.70;;;;;;5011210;28;20072;-72
2022/04/28 12:46:06;;;;;;;12.73;3.53;;;18.70;65.70;;;;;;5011161;28;20049;-71
2022/04/28 12:48:34;;;;;;;10.77;3.58;;;19.10;61.80;;;;;;5011091;28;20053;-71
2022/04/28 12:51:11;;;;;;;11.68;3.20;;;19.40;61.70;;;;;;5010871;28;20084;-71
2022/04/28 12:53:38;;;;;;;8.48;3.00;;;19.50;59.70;;;;;;5012243;28;20053;-71
2022/04/28 12:56:09;;;;;;;11.30;3.53;;;19.10;59.90;;;;;;5011041;28;20045;-71
2022/04/28 12:58:41;;;;;;;11.73;3.03;;;18.80;60.10;;;;;;5011129;28;20050;-71
2022/04/28 13:01:12;;;;;;;12.07;3.30;;;18.40;60.40;;;;;;5010847;28;20085;-71
2022/04/28 13:03:40;;;;;;;10.05;2.70;;;18.40;63.60;;;;;;5010753;28;20046;-71
2022/04/28 13:06:07;;;;;;;8.68;2.92;;;18.50;60.90;;;;;;5010833;28;20049;-71
2022/04/28 13:08:33;;;;;;;11.65;3.00;;;18.70;62.00;;;;;;5004547;28;20038;-71
2022/04/28 13:11:00;;;;;;;10.07;2.75;;;19.10;62.60;;;;;;5010764;28;20034;-71
2022/04/28 13:13:26;;;;;;;12.23;3.22;;;19.20;59.40;;;;;;5011082;28;20037;-71
2022/04/28 13:15:51;;;;;;;11.63;3.03;;;18.80;58.10;;;;;;5010696;28;20037;-71
2022/04/28 13:18:17;;;;;;;11.05;2.97;;;18.30;59.70;;;;;;5010803;28;20184;-72
2022/04/28 13:20:43;;;;;;;10.00;3.15;;;18.50;61.60;;;;;;5010561;28;20049;-71
2022/04/28 13:23:08;;;;;;;10.15;2.90;;;18.80;60.80;;;;;;5010860;28;20046;-71
2022/04/28 13:25:34;;;;;;;11.80;3.20;;;18.90;60.90;;;;;;5012397;28;20125;-71
2022/04/28 13:28:00;;;;;;;10.10;3.13;;;18.80;59.70;;;;;;5002216;28;20046;-71